If you wish to contribute or participate in the discussions about articles you are invited to join SKYbrary as a registered user

 Actions

Araxa Airport

From SKYbrary Wiki

SBAX
Airport
ICAO: SBAX – IATA: AAX
Summary
Name Araxa Airport
Region South America and Caribbean
Territory Brazil BR.gif
Location Araxa, Minas Gerais
Serving Araxa
Elevation 998.525 m
3,276 ft998.525 m
Coordinates 19° 33' 38.02" S, 46° 57' 56.02" W
Runways
Designator Length Width Surface ROPS
15/33 1900 m6,233.596 ft
30 m98.425 ft
ASP /


METAR
Observation SBAX 191500Z 00000KT 9999 SCT020 29/19 Q1016
Station ARAXA
Date/Time 19 March 2019 15:00:00
Wind direction
Wind speed 00 kts
Lowest cloud amount scattered clouds
Temperature 29°C
Dew point 19°C
Humidity 54%
QNH 1016 hPa
Weather condition n/a

Romeu Zema Airport is the airport serving Araxá, Brazil.

Climatology

Humid subtropical climate (Köppen climate classification Cwb)

Maps

Terrain

Loading map...

Airport Layout

Loading map...


Accidents & Serious Incidents at or in vicinity of SBAX

None on SKYbrary